Time;durP1;ratioP1;P1;durP2;ratioP2;P2;SDS_P1;SDS_P2;PMS_P1;PMS_P2;Temp;Humidity;BMP_temperature;BMP_pressure;BME280_temperature;BME280_humidity;BME280_pressure;Samples;Min_cycle;Max_cycle;Signal;HPM_P1;HPM_P2
2021/09/26 00:00:11;;;;;;;16.27;8.52;;;15.80;85.70;;;;;;5024537;28;20064;-63
2021/09/26 00:02:38;;;;;;;17.17;9.00;;;15.80;85.50;;;;;;5025479;28;20152;-61
2021/09/26 00:05:06;;;;;;;17.90;9.32;;;15.80;85.40;;;;;;5021958;28;20536;-62
2021/09/26 00:07:33;;;;;;;13.85;8.55;;;15.80;85.50;;;;;;5028555;28;20651;-62
2021/09/26 00:09:59;;;;;;;16.52;9.73;;;15.80;85.40;;;;;;5025941;28;20076;-62
2021/09/26 00:12:26;;;;;;;12.75;8.60;;;15.80;85.40;;;;;;5026931;28;20103;-63
2021/09/26 00:14:53;;;;;;;16.35;8.90;;;15.80;85.40;;;;;;5027129;28;20481;-62
2021/09/26 00:17:20;;;;;;;17.92;9.15;;;15.80;85.40;;;;;;5027329;28;20184;-61
2021/09/26 00:19:46;;;;;;;20.88;10.07;;;15.80;85.40;;;;;;5030584;28;20049;-60
2021/09/26 00:22:13;;;;;;;16.70;9.65;;;15.90;85.40;;;;;;5030887;28;20099;-62
2021/09/26 00:24:40;;;;;;;16.15;9.48;;;15.90;85.60;;;;;;5029134;28;20082;-62
2021/09/26 00:27:10;;;;;;;16.00;8.57;;;15.90;85.70;;;;;;5029409;28;20045;-62
2021/09/26 00:29:37;;;;;;;18.23;9.93;;;15.90;85.70;;;;;;5028280;28;20099;-62
2021/09/26 00:32:07;;;;;;;14.18;8.70;;;15.90;85.60;;;;;;5028562;28;20153;-62
2021/09/26 00:34:34;;;;;;;16.40;9.82;;;15.90;85.70;;;;;;5028386;28;20148;-63
2021/09/26 00:37:01;;;;;;;18.23;9.75;;;15.80;85.60;;;;;;5028016;28;20116;-62
2021/09/26 00:39:27;;;;;;;10.95;7.68;;;15.90;85.60;;;;;;5027827;28;20064;-62
2021/09/26 00:41:54;;;;;;;16.48;8.75;;;15.90;85.60;;;;;;5028821;28;20053;-62
2021/09/26 00:44:21;;;;;;;14.50;8.85;;;15.80;85.50;;;;;;5028489;28;20128;-62
2021/09/26 00:46:48;;;;;;;15.52;8.85;;;15.80;85.60;;;;;;5028705;28;20088;-62
2021/09/26 00:49:15;;;;;;;18.63;10.38;;;15.80;85.80;;;;;;5028345;28;20817;-63
2021/09/26 00:51:43;;;;;;;16.33;10.23;;;15.80;85.90;;;;;;5028873;28;20038;-60
2021/09/26 00:54:11;;;;;;;13.75;8.90;;;15.80;85.80;;;;;;5030137;28;20135;-61
2021/09/26 00:56:38;;;;;;;12.80;8.35;;;15.80;85.70;;;;;;5030130;28;20095;-63
2021/09/26 00:59:04;;;;;;;14.18;8.45;;;15.80;85.80;;;;;;5012457;28;20092;-62
2021/09/26 01:01:31;;;;;;;15.88;9.50;;;15.80;85.90;;;;;;5029865;28;20041;-62
2021/09/26 01:03:58;;;;;;;13.15;8.95;;;15.80;85.90;;;;;;5029822;28;20496;-62
2021/09/26 01:06:58;;;;;;;15.50;9.35;;;15.80;86.00;;;;;;5028779;28;20136;-62
2021/09/26 01:09:33;;;;;;;14.25;8.88;;;15.70;86.90;;;;;;5017139;28;20148;-62
2021/09/26 01:12:24;;;;;;;16.30;10.68;;;15.80;86.50;;;;;;5012871;28;20076;-62
2021/09/26 01:15:50;;;;;;;15.55;8.90;;;15.80;86.60;;;;;;5022354;28;20129;-61
2021/09/26 01:18:30;;;;;;;14.02;9.85;;;15.80;87.20;;;;;;4949125;29;20043;-61
2021/09/26 01:20:59;;;;;;;15.68;9.18;;;15.80;87.00;;;;;;4948257;29;20134;-62
2021/09/26 01:23:46;;;;;;;15.60;9.48;;;15.80;86.30;;;;;;4994764;28;20052;-63
2021/09/26 01:26:23;;;;;;;16.55;10.75;;;15.80;87.20;;;;;;5025796;28;20077;-61
2021/09/26 01:29:22;;;;;;;17.70;10.45;;;15.80;86.90;;;;;;5028087;28;20045;-61
2021/09/26 01:31:50;;;;;;;18.35;11.93;;;15.80;87.30;;;;;;5029292;28;20041;-61
2021/09/26 01:34:28;;;;;;;19.40;10.25;;;15.80;86.40;;;;;;5012110;28;20132;-61
2021/09/26 01:37:02;;;;;;;19.48;11.68;;;15.70;87.10;;;;;;5027403;28;20049;-61
2021/09/26 01:39:55;;;;;;;19.23;11.52;;;15.80;87.10;;;;;;5028176;28;20050;-61
2021/09/26 01:42:24;;;;;;;16.17;12.05;;;15.80;87.60;;;;;;5026816;28;20057;-61
2021/09/26 01:45:06;;;;;;;13.30;10.40;;;15.80;86.50;;;;;;5011575;28;20056;-63
2021/09/26 01:47:41;;;;;;;14.50;10.10;;;15.80;86.50;;;;;;5025357;28;20140;-63
2021/09/26 01:50:09;;;;;;;16.92;10.95;;;15.80;86.50;;;;;;5011559;28;20129;-61
2021/09/26 01:52:37;;;;;;;15.07;10.80;;;15.90;86.40;;;;;;5027440;28;20080;-61
2021/09/26 01:55:05;;;;;;;18.75;11.30;;;15.80;86.40;;;;;;5027915;28;20049;-62
2021/09/26 01:57:31;;;;;;;16.70;10.93;;;15.80;86.60;;;;;;5028200;28;20559;-63
2021/09/26 02:00:00;;;;;;;15.23;11.10;;;15.80;86.70;;;;;;5027719;28;20049;-63
2021/09/26 02:02:27;;;;;;;16.60;11.10;;;15.80;86.80;;;;;;5027466;28;20087;-63
2021/09/26 02:04:59;;;;;;;20.60;12.18;;;15.80;86.90;;;;;;5028064;28;20049;-62
2021/09/26 02:07:33;;;;;;;20.10;11.82;;;15.80;86.90;;;;;;4678870;28;9999990;-61
2021/09/26 02:10:00;;;;;;;15.38;10.73;;;15.80;87.40;;;;;;5014723;28;20088;-62
2021/09/26 02:12:27;;;;;;;23.70;12.55;;;15.80;86.90;;;;;;5009850;28;20104;-61
2021/09/26 02:14:54;;;;;;;17.42;12.20;;;15.90;86.90;;;;;;5011065;28;20504;-62
2021/09/26 02:17:23;;;;;;;25.73;12.77;;;15.90;86.90;;;;;;5027232;28;20041;-60
2021/09/26 02:20:02;;;;;;;16.83;12.15;;;15.90;86.90;;;;;;5026482;28;20083;-61
2021/09/26 02:22:30;;;;;;;19.63;12.90;;;15.80;87.10;;;;;;5025720;28;20084;-63
2021/09/26 02:24:59;;;;;;;18.23;14.07;;;15.90;87.10;;;;;;5027021;28;20140;-64
2021/09/26 02:27:26;;;;;;;21.30;15.45;;;15.90;87.10;;;;;;5007204;28;20118;-63
2021/09/26 02:29:53;;;;;;;18.25;13.05;;;15.90;87.10;;;;;;5027893;28;20468;-63
2021/09/26 02:32:20;;;;;;;19.25;12.35;;;15.90;87.00;;;;;;5028291;28;20045;-63
2021/09/26 02:34:47;;;;;;;17.83;13.02;;;15.90;87.60;;;;;;5028041;28;20072;-62
2021/09/26 02:37:14;;;;;;;19.65;12.35;;;15.90;87.00;;;;;;5027863;28;20049;-62
2021/09/26 02:39:40;;;;;;;23.65;12.45;;;15.90;87.00;;;;;;5028264;28;20042;-62
2021/09/26 02:42:18;;;;;;;21.88;12.38;;;15.90;87.00;;;;;;5025620;28;20095;-63
2021/09/26 02:45:01;;;;;;;21.33;11.93;;;15.90;87.50;;;;;;5022720;28;20048;-62
2021/09/26 02:47:29;;;;;;;20.67;12.13;;;16.00;87.50;;;;;;5013791;28;20546;-63
2021/09/26 02:49:56;;;;;;;19.63;11.90;;;15.90;87.00;;;;;;5021519;28;20076;-61
2021/09/26 02:52:23;;;;;;;16.65;11.43;;;15.90;87.10;;;;;;5028040;28;20080;-62
2021/09/26 02:54:49;;;;;;;20.10;13.75;;;15.90;87.10;;;;;;5010483;28;20050;-62
2021/09/26 02:57:16;;;;;;;21.02;13.77;;;15.90;87.10;;;;;;5010443;28;20049;-61
2021/09/26 02:59:43;;;;;;;20.55;12.48;;;15.90;87.10;;;;;;5029574;28;20163;-62
2021/09/26 03:02:10;;;;;;;17.15;12.23;;;16.00;87.20;;;;;;5010915;28;20586;-61
2021/09/26 03:04:44;;;;;;;23.92;13.07;;;16.00;87.20;;;;;;5026811;28;20049;-62
2021/09/26 03:07:14;;;;;;;20.55;13.23;;;16.00;87.50;;;;;;5033965;28;20107;-62
2021/09/26 03:09:41;;;;;;;19.45;12.32;;;16.00;87.20;;;;;;5025575;28;20135;-62
2021/09/26 03:12:14;;;;;;;16.52;11.23;;;16.00;87.10;;;;;;5027393;28;20088;-61
2021/09/26 03:14:41;;;;;;;;;;;15.90;87.40;;;;;;5027469;28;20081;-61
2021/09/26 03:17:08;;;;;;;17.58;11.95;;;15.90;88.10;;;;;;5027544;28;19968;-61
2021/09/26 03:19:35;;;;;;;19.40;12.93;;;15.80;87.20;;;;;;5027000;28;20145;-62
2021/09/26 03:22:02;;;;;;;18.23;11.35;;;15.80;87.30;;;;;;5027213;28;20096;-61
2021/09/26 03:24:29;;;;;;;18.10;12.95;;;15.90;87.20;;;;;;5026734;28;20107;-63
2021/09/26 03:26:56;;;;;;;19.65;14.20;;;15.80;87.20;;;;;;5027159;28;20119;-62
2021/09/26 03:29:23;;;;;;;23.75;12.95;;;15.90;87.30;;;;;;5027093;28;20147;-61
2021/09/26 03:31:50;;;;;;;20.92;13.40;;;15.90;87.30;;;;;;5026906;28;20045;-62
2021/09/26 03:34:17;;;;;;;20.33;12.27;;;15.90;87.20;;;;;;5027597;28;20041;-61
2021/09/26 03:36:43;;;;;;;19.48;11.70;;;15.90;87.20;;;;;;5027967;28;20167;-64
2021/09/26 03:39:10;;;;;;;19.17;12.55;;;15.90;87.30;;;;;;5012781;28;20079;-62
2021/09/26 03:41:37;;;;;;;23.00;13.20;;;15.90;87.30;;;;;;5023499;28;20101;-62
2021/09/26 03:44:04;;;;;;;18.00;13.38;;;15.90;87.80;;;;;;5025530;28;20107;-61
2021/09/26 03:46:31;;;;;;;21.90;14.50;;;15.90;87.30;;;;;;5028138;28;20141;-63
2021/09/26 03:48:57;;;;;;;22.52;13.27;;;16.00;87.30;;;;;;5027070;28;20139;-62
2021/09/26 03:51:24;;;;;;;23.33;13.63;;;16.00;87.40;;;;;;5026699;28;20128;-62
2021/09/26 03:53:51;;;;;;;21.20;13.85;;;15.90;87.30;;;;;;5025499;28;20071;-62
2021/09/26 03:56:18;;;;;;;22.45;14.52;;;16.00;87.50;;;;;;5026625;28;20508;-61
2021/09/26 03:58:44;;;;;;;22.90;13.75;;;16.00;87.50;;;;;;5027415;28;20092;-62
2021/09/26 04:01:11;;;;;;;22.70;13.85;;;15.90;87.50;;;;;;5025225;28;20077;-62
2021/09/26 04:03:38;;;;;;;20.00;12.80;;;16.00;87.70;;;;;;5015115;28;20061;-61
2021/09/26 04:06:09;;;;;;;20.48;13.48;;;15.90;87.70;;;;;;5020987;28;20099;-62
2021/09/26 04:08:38;;;;;;;21.65;12.88;;;15.90;87.90;;;;;;5026610;28;20049;-61
2021/09/26 04:11:06;;;;;;;23.52;13.02;;;15.90;87.90;;;;;;5026741;28;20041;-62
2021/09/26 04:13:33;;;;;;;24.08;13.88;;;15.90;87.80;;;;;;5021903;28;20092;-62
2021/09/26 04:16:00;;;;;;;24.50;14.52;;;15.90;87.90;;;;;;5025548;28;20084;-62
2021/09/26 04:18:26;;;;;;;18.63;13.13;;;15.90;87.90;;;;;;5026917;28;20061;-61
2021/09/26 04:20:53;;;;;;;22.70;14.27;;;15.90;87.90;;;;;;5026718;28;20145;-62
2021/09/26 04:23:20;;;;;;;26.83;13.93;;;15.90;87.90;;;;;;5026344;28;20653;-60
2021/09/26 04:25:47;;;;;;;22.27;15.05;;;16.00;87.90;;;;;;5026565;28;20421;-61
2021/09/26 04:28:14;;;;;;;22.15;14.27;;;16.00;87.90;;;;;;5026438;28;20084;-61
2021/09/26 04:30:40;;;;;;;28.83;16.00;;;16.00;87.90;;;;;;5026198;28;20088;-62
2021/09/26 04:33:07;;;;;;;25.27;14.38;;;15.90;88.00;;;;;;5025276;28;20124;-61
2021/09/26 04:35:34;;;;;;;21.10;14.90;;;16.00;87.90;;;;;;5026234;28;20096;-62
2021/09/26 04:38:01;;;;;;;25.75;15.75;;;15.90;87.90;;;;;;5026414;28;20065;-61
2021/09/26 04:40:27;;;;;;;27.63;16.45;;;16.00;88.10;;;;;;5026419;28;20054;-62
2021/09/26 04:42:54;;;;;;;29.60;15.77;;;15.90;88.10;;;;;;5026320;28;20128;-62
2021/09/26 04:45:21;;;;;;;24.83;15.68;;;15.90;88.00;;;;;;5026564;28;20081;-61
2021/09/26 04:47:47;;;;;;;22.95;15.95;;;15.90;88.00;;;;;;5026277;28;20052;-62
2021/09/26 04:50:14;;;;;;;24.10;14.82;;;15.90;87.90;;;;;;5026456;28;20053;-61
2021/09/26 04:52:41;;;;;;;25.55;15.48;;;15.90;88.00;;;;;;5026262;28;20132;-61
2021/09/26 04:55:08;;;;;;;22.85;14.98;;;15.80;88.00;;;;;;5026487;28;20077;-61
2021/09/26 04:57:35;;;;;;;24.13;16.42;;;15.80;88.00;;;;;;5026170;28;20092;-62
2021/09/26 05:00:04;;;;;;;26.23;15.98;;;15.80;88.10;;;;;;5030233;28;20106;-63
2021/09/26 05:02:31;;;;;;;23.90;15.85;;;15.80;88.20;;;;;;5025767;28;20420;-61
2021/09/26 05:04:58;;;;;;;29.83;16.88;;;15.70;88.20;;;;;;5027552;28;20053;-62
2021/09/26 05:07:25;;;;;;;30.65;16.73;;;15.70;88.30;;;;;;5029650;28;20517;-61
2021/09/26 05:09:52;;;;;;;28.35;14.45;;;15.70;88.40;;;;;;5029537;28;20056;-62
2021/09/26 05:12:18;;;;;;;26.17;15.02;;;15.70;88.40;;;;;;5029410;28;20053;-62
2021/09/26 05:14:45;;;;;;;24.00;15.68;;;15.70;88.50;;;;;;5029637;28;20045;-62
2021/09/26 05:17:12;;;;;;;27.63;15.73;;;15.70;88.60;;;;;;5029619;28;20199;-62
2021/09/26 05:19:39;;;;;;;27.38;15.52;;;15.70;88.60;;;;;;5029086;28;20049;-62
2021/09/26 05:22:06;;;;;;;24.23;15.30;;;15.70;88.60;;;;;;5029674;28;20054;-62
2021/09/26 05:24:32;;;;;;;21.08;14.10;;;15.70;88.70;;;;;;5029630;28;20085;-62
2021/09/26 05:26:59;;;;;;;21.10;14.27;;;15.70;88.50;;;;;;5028734;28;20073;-63
2021/09/26 05:29:26;;;;;;;20.92;14.35;;;15.60;88.40;;;;;;5028765;28;20053;-61
2021/09/26 05:31:53;;;;;;;27.10;16.10;;;15.60;88.30;;;;;;5028976;28;20081;-61
2021/09/26 05:34:20;;;;;;;25.52;16.00;;;15.60;88.50;;;;;;5027654;28;20124;-62
2021/09/26 05:36:47;;;;;;;23.50;15.88;;;15.50;88.70;;;;;;5029273;28;20085;-62
2021/09/26 05:39:14;;;;;;;26.00;15.43;;;15.50;88.60;;;;;;5028817;28;20049;-61
2021/09/26 05:41:40;;;;;;;25.75;15.20;;;15.50;88.60;;;;;;5028901;28;20136;-61
2021/09/26 05:44:07;;;;;;;29.50;17.75;;;15.50;88.70;;;;;;5029051;28;20091;-62
2021/09/26 05:46:34;;;;;;;22.00;14.30;;;15.40;88.60;;;;;;5027640;28;20045;-62
2021/09/26 05:49:01;;;;;;;27.42;17.10;;;15.30;88.80;;;;;;5027400;28;20123;-62
2021/09/26 05:51:27;;;;;;;22.42;14.85;;;15.30;88.90;;;;;;5028464;28;20723;-60
2021/09/26 05:53:54;;;;;;;24.48;15.52;;;15.40;88.90;;;;;;5028830;28;20140;-62
2021/09/26 05:56:21;;;;;;;26.55;15.93;;;15.30;88.90;;;;;;5028677;28;20076;-60
2021/09/26 05:58:48;;;;;;;27.33;16.70;;;15.40;89.10;;;;;;5027549;28;20080;-61
2021/09/26 06:01:14;;;;;;;23.17;15.98;;;15.30;89.10;;;;;;5028666;28;20116;-62
2021/09/26 06:03:41;;;;;;;32.55;16.70;;;15.40;89.50;;;;;;5027697;28;20049;-63
2021/09/26 06:06:09;;;;;;;23.58;15.15;;;15.40;89.20;;;;;;5028628;28;20103;-62
2021/09/26 06:08:35;;;;;;;24.83;14.80;;;15.40;89.20;;;;;;5027422;28;20286;-61
2021/09/26 06:11:02;;;;;;;25.48;16.17;;;15.40;89.10;;;;;;5028399;28;20041;-61
2021/09/26 06:13:29;;;;;;;23.05;14.77;;;15.40;89.10;;;;;;5028377;28;20137;-62
2021/09/26 06:15:56;;;;;;;24.25;16.25;;;15.40;89.40;;;;;;5026855;28;20160;-62
2021/09/26 06:18:23;;;;;;;23.08;15.27;;;15.40;89.50;;;;;;5028940;28;20103;-62
2021/09/26 06:20:50;;;;;;;28.85;17.60;;;15.50;89.40;;;;;;5027990;28;20095;-62
2021/09/26 06:23:17;;;;;;;29.38;16.95;;;15.60;89.60;;;;;;5028506;28;20049;-63
2021/09/26 06:25:44;;;;;;;26.67;17.88;;;15.60;89.50;;;;;;5028244;28;20083;-63
2021/09/26 06:28:10;;;;;;;26.02;15.07;;;15.70;89.70;;;;;;5028817;28;20240;-61
2021/09/26 06:30:37;;;;;;;28.23;18.52;;;15.70;89.70;;;;;;5027859;28;20046;-62
2021/09/26 06:33:04;;;;;;;36.15;20.17;;;15.80;90.00;;;;;;5027406;28;20100;-62
2021/09/26 06:35:32;;;;;;;33.13;20.67;;;15.90;90.20;;;;;;5027834;28;20496;-62
2021/09/26 06:37:58;;;;;;;34.40;20.95;;;16.00;90.20;;;;;;5027914;28;20045;-64
2021/09/26 06:40:25;;;;;;;42.42;25.73;;;16.10;90.30;;;;;;5027727;28;20141;-62
2021/09/26 06:42:52;;;;;;;38.15;22.33;;;16.10;90.40;;;;;;5027985;28;20056;-62
2021/09/26 06:45:19;;;;;;;40.72;22.88;;;16.20;90.40;;;;;;5028297;28;20129;-63
2021/09/26 06:47:46;;;;;;;50.10;27.08;;;16.20;90.50;;;;;;5026678;28;20114;-63
2021/09/26 06:50:13;;;;;;;51.28;27.27;;;16.30;90.80;;;;;;5027576;28;20129;-62
2021/09/26 06:52:40;;;;;;;53.47;27.98;;;16.40;91.00;;;;;;5027544;28;20112;-62
2021/09/26 06:55:07;;;;;;;55.05;26.90;;;16.50;91.10;;;;;;5027468;28;20137;-62
2021/09/26 06:57:33;;;;;;;47.00;26.17;;;16.60;91.10;;;;;;5026870;28;20045;-62
2021/09/26 07:00:00;;;;;;;55.63;27.48;;;16.70;91.20;;;;;;5030147;28;20049;-62
2021/09/26 07:02:27;;;;;;;51.88;26.58;;;16.80;91.20;;;;;;5029936;28;20548;-62
2021/09/26 07:04:54;;;;;;;51.15;27.77;;;16.90;91.20;;;;;;5030671;28;20175;-61
2021/09/26 07:07:23;;;;;;;45.53;26.13;;;16.90;91.10;;;;;;5030585;28;20042;-62
2021/09/26 07:09:50;;;;;;;49.50;24.70;;;17.00;91.10;;;;;;5029009;28;20490;-60
2021/09/26 07:12:17;;;;;;;47.13;26.15;;;17.10;91.30;;;;;;5029852;28;20140;-61
2021/09/26 07:14:44;;;;;;;49.72;26.83;;;17.20;91.10;;;;;;5030367;28;20077;-62
2021/09/26 07:17:11;;;;;;;50.72;26.50;;;17.20;91.10;;;;;;5029708;28;20472;-61
2021/09/26 07:19:39;;;;;;;47.83;25.60;;;17.30;91.00;;;;;;5030149;28;20072;-61
2021/09/26 07:22:05;;;;;;;43.95;24.98;;;17.40;91.00;;;;;;5029166;28;20180;-62
2021/09/26 07:24:32;;;;;;;47.53;25.17;;;17.40;90.90;;;;;;5027795;28;20053;-62
2021/09/26 07:27:00;;;;;;;49.00;26.10;;;17.50;90.90;;;;;;5026838;28;20124;-62
2021/09/26 07:29:27;;;;;;;48.95;26.83;;;17.50;90.90;;;;;;5026804;28;20496;-62
2021/09/26 07:31:53;;;;;;;50.72;26.23;;;17.60;90.90;;;;;;5026685;28;20045;-62
2021/09/26 07:34:20;;;;;;;50.42;27.15;;;17.60;90.90;;;;;;5026892;28;20130;-61
2021/09/26 07:36:47;;;;;;;47.03;25.88;;;17.70;90.80;;;;;;5026320;28;20073;-62
2021/09/26 07:39:14;;;;;;;47.53;27.15;;;17.70;90.70;;;;;;5026023;28;20528;-62
2021/09/26 07:41:41;;;;;;;42.47;24.67;;;17.80;90.70;;;;;;5026527;28;20137;-63
2021/09/26 07:44:10;;;;;;;46.05;26.15;;;17.80;90.70;;;;;;5026883;28;20433;-63
2021/09/26 07:46:36;;;;;;;46.90;25.48;;;17.90;90.90;;;;;;5027430;28;20093;-63
2021/09/26 07:49:05;;;;;;;48.33;27.00;;;17.80;90.60;;;;;;5026435;28;20041;-63
2021/09/26 07:51:32;;;;;;;46.47;26.95;;;17.90;90.70;;;;;;5027207;28;20080;-62
2021/09/26 07:53:58;;;;;;;42.35;25.17;;;17.90;90.60;;;;;;5026730;28;20522;-63
2021/09/26 07:56:25;;;;;;;48.20;28.65;;;18.00;90.50;;;;;;5027133;28;20092;-63
2021/09/26 07:58:52;;;;;;;45.25;26.98;;;18.00;90.40;;;;;;5026778;28;20046;-61
2021/09/26 08:01:19;;;;;;;42.90;25.60;;;18.10;90.50;;;;;;5027696;28;20132;-60
2021/09/26 08:03:46;;;;;;;42.17;25.13;;;18.10;90.50;;;;;;5026300;28;20111;-59
2021/09/26 08:06:14;;;;;;;36.85;23.20;;;18.10;90.40;;;;;;5026576;28;20049;-59
2021/09/26 08:08:41;;;;;;;37.90;24.25;;;18.20;90.30;;;;;;5026842;28;20128;-60
2021/09/26 08:11:07;;;;;;;39.22;24.83;;;18.30;90.50;;;;;;5026941;28;20089;-60
2021/09/26 08:13:34;;;;;;;36.63;23.40;;;18.30;90.20;;;;;;5026849;28;20076;-59
2021/09/26 08:16:01;;;;;;;39.88;26.80;;;18.40;90.10;;;;;;5028135;28;20099;-59
2021/09/26 08:18:28;;;;;;;33.70;23.15;;;18.40;90.10;;;;;;5028106;28;20061;-59
2021/09/26 08:20:54;;;;;;;39.05;23.42;;;18.40;90.00;;;;;;5026959;28;20115;-59
2021/09/26 08:23:21;;;;;;;39.38;25.10;;;18.50;90.20;;;;;;5027310;28;20124;-59
2021/09/26 08:25:48;;;;;;;32.42;21.30;;;18.50;89.90;;;;;;5026565;28;20133;-59
2021/09/26 08:28:15;;;;;;;39.10;24.13;;;18.60;89.80;;;;;;5026254;28;20084;-59
2021/09/26 08:30:41;;;;;;;35.83;23.10;;;18.60;90.00;;;;;;5025168;28;20184;-59
2021/09/26 08:33:08;;;;;;;33.45;22.05;;;18.60;89.60;;;;;;5025660;28;20121;-59
2021/09/26 08:35:35;;;;;;;32.35;21.85;;;18.60;89.50;;;;;;5025366;28;20140;-59
2021/09/26 08:38:03;;;;;;;30.60;19.88;;;18.60;89.40;;;;;;5007984;28;20042;-59
2021/09/26 08:40:29;;;;;;;28.50;19.33;;;18.60;89.40;;;;;;5025442;28;20069;-60
2021/09/26 08:42:57;;;;;;;30.20;19.65;;;18.60;89.30;;;;;;5030460;28;20100;-60
2021/09/26 08:45:24;;;;;;;30.45;19.77;;;18.60;89.30;;;;;;5029156;28;20077;-60
2021/09/26 08:47:50;;;;;;;24.02;17.90;;;18.60;89.20;;;;;;5029057;28;20076;-64
2021/09/26 08:50:19;;;;;;;27.58;18.73;;;18.70;89.20;;;;;;5030237;28;20042;-60
2021/09/26 08:52:46;;;;;;;35.10;18.77;;;18.80;89.30;;;;;;5030532;28;20464;-60
2021/09/26 08:55:14;;;;;;;27.80;18.15;;;18.80;89.30;;;;;;5030164;28;20053;-61
2021/09/26 08:57:40;;;;;;;25.70;18.10;;;18.90;89.00;;;;;;5029743;28;20766;-60
2021/09/26 09:00:08;;;;;;;35.55;17.80;;;18.80;88.90;;;;;;5028130;28;20132;-63
2021/09/26 09:02:35;;;;;;;26.75;17.13;;;18.80;88.60;;;;;;5029342;28;20049;-61
2021/09/26 09:05:04;;;;;;;29.98;18.27;;;18.80;88.80;;;;;;5029976;28;20099;-61
2021/09/26 09:07:31;;;;;;;29.42;18.80;;;18.70;88.90;;;;;;5029764;28;20081;-58
2021/09/26 09:10:00;;;;;;;24.33;15.18;;;18.80;88.90;;;;;;5028628;28;20045;-60
2021/09/26 09:12:29;;;;;;;23.70;15.98;;;18.80;88.60;;;;;;5028986;28;20088;-59
2021/09/26 09:15:00;;;;;;;27.08;17.40;;;18.80;89.20;;;;;;5028247;28;20445;-59
2021/09/26 09:17:30;;;;;;;25.08;16.25;;;18.80;88.50;;;;;;5027825;28;20564;-59
2021/09/26 09:20:12;;;;;;;27.83;17.33;;;18.80;88.50;;;;;;5028649;28;20103;-60
2021/09/26 09:22:39;;;;;;;24.90;15.60;;;18.90;88.50;;;;;;5026803;28;20105;-59
2021/09/26 09:25:07;;;;;;;27.15;16.58;;;18.90;88.30;;;;;;5026222;28;20058;-61
2021/09/26 09:27:33;;;;;;;28.45;15.63;;;18.90;88.30;;;;;;5023311;28;20061;-61
2021/09/26 09:30:04;;;;;;;22.63;14.98;;;19.00;88.30;;;;;;5024303;28;20156;-62
2021/09/26 09:32:31;;;;;;;28.05;15.02;;;19.00;88.20;;;;;;5025348;28;20084;-59
2021/09/26 09:34:57;;;;;;;28.90;16.70;;;19.10;88.00;;;;;;5026899;28;20132;-59
2021/09/26 09:37:25;;;;;;;21.63;15.15;;;19.10;87.90;;;;;;5026019;28;20160;-59
2021/09/26 09:40:12;;;;;;;24.05;15.63;;;19.20;88.00;;;;;;5023467;28;20119;-59
2021/09/26 09:42:44;;;;;;;24.77;14.15;;;19.30;87.60;;;;;;5026551;28;20131;-60
2021/09/26 09:45:18;;;;;;;25.38;14.98;;;19.30;87.20;;;;;;5027219;28;20140;-60
2021/09/26 09:48:01;;;;;;;18.27;13.73;;;19.40;87.50;;;;;;5026464;28;20069;-60
2021/09/26 09:50:40;;;;;;;22.47;13.17;;;19.50;87.30;;;;;;5017467;28;20328;-60
2021/09/26 09:53:07;;;;;;;23.85;13.30;;;19.60;87.00;;;;;;5025714;28;20345;-59
2021/09/26 09:55:36;;;;;;;19.52;12.60;;;19.60;87.10;;;;;;5026263;28;20148;-59
2021/09/26 09:58:16;;;;;;;21.67;13.80;;;19.80;86.90;;;;;;5024219;28;20041;-60
2021/09/26 10:00:51;;;;;;;15.98;11.73;;;19.90;86.20;;;;;;4677264;28;10000699;-60
2021/09/26 10:03:41;;;;;;;17.67;10.75;;;20.10;85.60;;;;;;5024668;28;20053;-59
2021/09/26 10:06:18;;;;;;;20.80;10.50;;;20.20;85.10;;;;;;5025085;28;20426;-60
2021/09/26 10:08:45;;;;;;;24.45;10.85;;;20.20;84.20;;;;;;5024283;28;20100;-60
2021/09/26 10:11:24;;;;;;;16.60;9.80;;;20.20;85.10;;;;;;5024963;28;20125;-60
2021/09/26 10:13:51;;;;;;;14.40;8.32;;;20.20;84.40;;;;;;5024669;28;20081;-60
2021/09/26 10:16:18;;;;;;;16.73;8.77;;;20.20;84.50;;;;;;5024866;28;20115;-59
2021/09/26 10:18:45;;;;;;;19.15;9.00;;;20.20;84.80;;;;;;5023051;28;20041;-60
2021/09/26 10:21:12;;;;;;;15.60;8.88;;;20.20;84.50;;;;;;5004004;28;20080;-59
2021/09/26 10:23:44;;;;;;;13.88;8.30;;;20.20;84.40;;;;;;5017125;28;20349;-60
2021/09/26 10:26:11;;;;;;;16.58;7.90;;;20.20;84.00;;;;;;5023170;28;20057;-59
2021/09/26 10:28:38;;;;;;;14.82;8.35;;;20.10;84.40;;;;;;5023946;28;20081;-59
2021/09/26 10:31:05;;;;;;;15.27;8.40;;;20.10;84.10;;;;;;5022210;28;20081;-58
2021/09/26 10:33:32;;;;;;;14.13;8.23;;;20.10;84.60;;;;;;5022210;28;20115;-59
2021/09/26 10:36:00;;;;;;;13.18;7.90;;;20.10;84.10;;;;;;5021931;28;20498;-60
2021/09/26 10:38:27;;;;;;;10.73;7.43;;;20.10;83.80;;;;;;5013521;28;20163;-60
2021/09/26 10:40:53;;;;;;;17.48;7.22;;;20.10;84.10;;;;;;5020056;28;20046;-60
2021/09/26 10:43:27;;;;;;;18.33;7.85;;;20.10;84.30;;;;;;5023512;28;20129;-60
2021/09/26 10:46:26;;;;;;;14.60;8.15;;;20.20;84.20;;;;;;5023229;28;20132;-60
2021/09/26 10:48:56;;;;;;;16.38;7.03;;;20.20;83.50;;;;;;5021652;28;20073;-60
2021/09/26 10:51:45;;;;;;;13.32;7.07;;;20.20;83.70;;;;;;5022879;28;20136;-60
2021/09/26 10:54:21;;;;;;;11.55;7.05;;;20.20;83.20;;;;;;5022134;28;20495;-60
2021/09/26 10:56:49;;;;;;;11.85;6.47;;;20.20;83.10;;;;;;5022798;28;20107;-60
2021/09/26 10:59:15;;;;;;;10.68;7.38;;;20.30;83.40;;;;;;5020197;28;20049;-60
2021/09/26 11:01:42;;;;;;;23.10;6.07;;;20.20;83.20;;;;;;5022733;28;20167;-60
2021/09/26 11:04:13;;;;;;;9.82;5.68;;;20.30;83.20;;;;;;5018973;28;20452;-61
2021/09/26 11:06:40;;;;;;;9.88;6.28;;;20.40;81.90;;;;;;5022741;28;20105;-60
2021/09/26 11:09:08;;;;;;;10.68;6.13;;;20.50;82.40;;;;;;5023276;28;20139;-60
2021/09/26 11:11:36;;;;;;;12.13;5.53;;;20.60;82.30;;;;;;5021096;28;20087;-59
2021/09/26 11:14:03;;;;;;;7.55;5.82;;;20.70;82.20;;;;;;5022891;28;20125;-60
2021/09/26 11:16:55;;;;;;;11.73;5.07;;;20.80;81.90;;;;;;5023201;28;20088;-61
2021/09/26 11:19:23;;;;;;;13.68;6.05;;;20.80;80.20;;;;;;5022160;28;20152;-59
2021/09/26 11:21:51;;;;;;;13.38;6.03;;;20.70;81.20;;;;;;5021460;28;20061;-60
2021/09/26 11:24:21;;;;;;;10.25;5.22;;;20.70;80.90;;;;;;5021733;28;20049;-60
2021/09/26 11:26:59;;;;;;;14.95;5.30;;;20.70;81.10;;;;;;5022551;28;20120;-60
2021/09/26 11:29:30;;;;;;;15.18;5.25;;;20.70;80.20;;;;;;5022549;28;20626;-61
2021/09/26 11:31:57;;;;;;;10.65;6.15;;;20.60;80.90;;;;;;5020777;28;20235;-61
2021/09/26 11:34:41;;;;;;;15.23;5.93;;;20.60;81.40;;;;;;5023367;28;20046;-60
2021/09/26 11:37:12;;;;;;;8.38;5.50;;;20.60;80.10;;;;;;5023541;28;20053;-60
2021/09/26 11:39:40;;;;;;;14.13;6.40;;;20.60;81.20;;;;;;5022045;28;20111;-61
2021/09/26 11:42:32;;;;;;;13.38;7.38;;;20.60;81.20;;;;;;5023948;28;20179;-60
2021/09/26 11:45:01;;;;;;;11.77;5.78;;;20.60;80.50;;;;;;5020375;28;20141;-61
2021/09/26 11:47:28;;;;;;;9.93;5.95;;;20.60;81.30;;;;;;5023917;28;20097;-60
2021/09/26 11:50:05;;;;;;;8.18;5.00;;;20.60;80.80;;;;;;5023044;28;20081;-61
2021/09/26 11:52:43;;;;;;;10.73;5.18;;;20.60;80.30;;;;;;5023595;28;20050;-60
2021/09/26 11:55:17;;;;;;;12.38;5.88;;;20.60;80.00;;;;;;5023091;28;20068;-61
2021/09/26 11:57:48;;;;;;;9.75;5.35;;;20.60;80.10;;;;;;5022020;28;20057;-61
2021/09/26 12:00:29;;;;;;;9.77;5.75;;;20.60;80.60;;;;;;5014418;28;20045;-59
2021/09/26 12:02:56;;;;;;;7.47;5.18;;;20.70;79.10;;;;;;5022664;28;20124;-59
2021/09/26 12:05:33;;;;;;;9.93;5.53;;;20.70;80.30;;;;;;5023464;28;20053;-61
2021/09/26 12:08:02;;;;;;;7.72;5.05;;;20.70;79.40;;;;;;5022612;28;20056;-60
2021/09/26 12:10:30;;;;;;;11.55;5.70;;;20.70;79.60;;;;;;5019782;28;20050;-61
2021/09/26 12:12:56;;;;;;;15.57;5.22;;;20.70;79.40;;;;;;5021364;28;20037;-60
2021/09/26 12:15:26;;;;;;;9.13;5.38;;;20.70;80.00;;;;;;5024006;28;20068;-60
2021/09/26 12:17:56;;;;;;;9.52;6.00;;;20.70;80.00;;;;;;5024061;28;20219;-60
2021/09/26 12:20:23;;;;;;;7.85;5.70;;;20.70;78.90;;;;;;5026127;28;20453;-61
2021/09/26 12:22:59;;;;;;;10.38;5.63;;;20.70;79.70;;;;;;5024621;28;20081;-60
2021/09/26 12:25:26;;;;;;;6.03;4.75;;;20.70;79.70;;;;;;5008173;28;20084;-60
2021/09/26 12:28:03;;;;;;;8.25;6.45;;;20.70;80.30;;;;;;5025952;28;20049;-61
2021/09/26 12:30:39;;;;;;;13.48;7.85;;;20.60;79.30;;;;;;5027503;28;20085;-61
2021/09/26 12:33:08;;;;;;;9.48;6.80;;;20.50;79.60;;;;;;5027387;28;20152;-61
2021/09/26 12:35:39;;;;;;;8.25;6.35;;;20.50;80.10;;;;;;5027844;28;20049;-62
2021/09/26 12:38:22;;;;;;;11.38;5.97;;;20.50;80.30;;;;;;5026439;28;20145;-61
2021/09/26 12:40:54;;;;;;;12.27;7.00;;;20.40;80.40;;;;;;5026217;28;20053;-60